sensor_id;sensor_type;location;lat;lon;timestamp;P1;durP1;ratioP1;P2;durP2;ratioP2
24685;SDS011;12804;51.176;4.452;2023-04-12T00:01:48;3.22;;;1.15;;
24685;SDS011;12804;51.176;4.452;2023-04-12T00:04:14;2.78;;;1.10;;
24685;SDS011;12804;51.176;4.452;2023-04-12T00:06:40;2.28;;;0.90;;
24685;SDS011;12804;51.176;4.452;2023-04-12T00:09:07;3.03;;;0.95;;
24685;SDS011;12804;51.176;4.452;2023-04-12T00:11:33;2.17;;;0.85;;
24685;SDS011;12804;51.176;4.452;2023-04-12T00:14:00;2.88;;;0.90;;
24685;SDS011;12804;51.176;4.452;2023-04-12T00:16:25;2.90;;;1.02;;
24685;SDS011;12804;51.176;4.452;2023-04-12T00:18:51;3.17;;;1.20;;
24685;SDS011;12804;51.176;4.452;2023-04-12T00:21:17;3.63;;;0.90;;
24685;SDS011;12804;51.176;4.452;2023-04-12T00:23:46;3.80;;;1.00;;
24685;SDS011;12804;51.176;4.452;2023-04-12T00:26:13;3.22;;;0.95;;
24685;SDS011;12804;51.176;4.452;2023-04-12T00:28:41;3.40;;;1.30;;
24685;SDS011;12804;51.176;4.452;2023-04-12T00:31:07;3.53;;;1.10;;
24685;SDS011;12804;51.176;4.452;2023-04-12T00:33:33;3.25;;;1.02;;
24685;SDS011;12804;51.176;4.452;2023-04-12T00:35:59;3.03;;;1.08;;
24685;SDS011;12804;51.176;4.452;2023-04-12T00:38:25;2.45;;;1.00;;
24685;SDS011;12804;51.176;4.452;2023-04-12T00:40:51;4.72;;;1.17;;
24685;SDS011;12804;51.176;4.452;2023-04-12T00:43:17;2.60;;;1.13;;
24685;SDS011;12804;51.176;4.452;2023-04-12T00:45:43;3.95;;;1.27;;
24685;SDS011;12804;51.176;4.452;2023-04-12T00:48:10;3.45;;;1.08;;
24685;SDS011;12804;51.176;4.452;2023-04-12T00:50:36;1.70;;;0.90;;
24685;SDS011;12804;51.176;4.452;2023-04-12T00:53:09;4.40;;;1.10;;
24685;SDS011;12804;51.176;4.452;2023-04-12T00:55:41;2.60;;;0.95;;
24685;SDS011;12804;51.176;4.452;2023-04-12T00:58:09;3.55;;;0.98;;
24685;SDS011;12804;51.176;4.452;2023-04-12T01:00:34;3.97;;;1.00;;
24685;SDS011;12804;51.176;4.452;2023-04-12T01:03:00;2.63;;;0.68;;
24685;SDS011;12804;51.176;4.452;2023-04-12T01:05:29;4.55;;;1.13;;
24685;SDS011;12804;51.176;4.452;2023-04-12T01:13:39;3.05;;;0.95;;
24685;SDS011;12804;51.176;4.452;2023-04-12T01:16:12;3.70;;;0.90;;
24685;SDS011;12804;51.176;4.452;2023-04-12T01:18:45;2.75;;;0.82;;
24685;SDS011;12804;51.176;4.452;2023-04-12T01:21:18;4.35;;;1.05;;
24685;SDS011;12804;51.176;4.452;2023-04-12T01:26:42;4.95;;;1.10;;
24685;SDS011;12804;51.176;4.452;2023-04-12T01:29:19;3.35;;;1.00;;
24685;SDS011;12804;51.176;4.452;2023-04-12T01:32:07;3.38;;;1.25;;
24685;SDS011;12804;51.176;4.452;2023-04-12T01:34:34;3.55;;;1.02;;
24685;SDS011;12804;51.176;4.452;2023-04-12T01:37:02;1.83;;;1.02;;
24685;SDS011;12804;51.176;4.452;2023-04-12T01:39:29;2.78;;;1.23;;
24685;SDS011;12804;51.176;4.452;2023-04-12T01:41:56;1.92;;;0.85;;
24685;SDS011;12804;51.176;4.452;2023-04-12T01:44:22;2.83;;;1.10;;
24685;SDS011;12804;51.176;4.452;2023-04-12T01:46:48;2.92;;;0.90;;
24685;SDS011;12804;51.176;4.452;2023-04-12T01:49:15;3.67;;;1.10;;
24685;SDS011;12804;51.176;4.452;2023-04-12T01:51:52;3.10;;;1.00;;
24685;SDS011;12804;51.176;4.452;2023-04-12T01:54:29;3.95;;;1.00;;
24685;SDS011;12804;51.176;4.452;2023-04-12T01:56:59;2.33;;;1.00;;
24685;SDS011;12804;51.176;4.452;2023-04-12T01:59:44;2.45;;;1.00;;
24685;SDS011;12804;51.176;4.452;2023-04-12T02:02:13;4.47;;;1.20;;
24685;SDS011;12804;51.176;4.452;2023-04-12T02:04:39;3.38;;;1.20;;
24685;SDS011;12804;51.176;4.452;2023-04-12T02:07:07;3.85;;;1.20;;
24685;SDS011;12804;51.176;4.452;2023-04-12T02:09:37;2.78;;;1.20;;
24685;SDS011;12804;51.176;4.452;2023-04-12T02:12:04;1.83;;;0.90;;
24685;SDS011;12804;51.176;4.452;2023-04-12T02:14:30;2.45;;;1.10;;
24685;SDS011;12804;51.176;4.452;2023-04-12T02:16:56;3.70;;;1.10;;
24685;SDS011;12804;51.176;4.452;2023-04-12T02:19:23;4.70;;;1.15;;
24685;SDS011;12804;51.176;4.452;2023-04-12T02:21:50;2.70;;;1.15;;
24685;SDS011;12804;51.176;4.452;2023-04-12T02:24:16;3.13;;;1.10;;
24685;SDS011;12804;51.176;4.452;2023-04-12T02:26:43;2.65;;;1.23;;
24685;SDS011;12804;51.176;4.452;2023-04-12T02:29:09;3.33;;;1.20;;
24685;SDS011;12804;51.176;4.452;2023-04-12T02:31:36;1.75;;;1.10;;
24685;SDS011;12804;51.176;4.452;2023-04-12T02:34:05;5.05;;;1.85;;
24685;SDS011;12804;51.176;4.452;2023-04-12T02:36:32;3.83;;;1.40;;
24685;SDS011;12804;51.176;4.452;2023-04-12T02:38:59;5.93;;;1.60;;
24685;SDS011;12804;51.176;4.452;2023-04-12T02:41:25;4.57;;;1.70;;
24685;SDS011;12804;51.176;4.452;2023-04-12T02:43:51;3.75;;;1.30;;
24685;SDS011;12804;51.176;4.452;2023-04-12T02:46:18;3.13;;;1.30;;
24685;SDS011;12804;51.176;4.452;2023-04-12T02:48:50;3.42;;;1.23;;
24685;SDS011;12804;51.176;4.452;2023-04-12T02:51:18;3.00;;;1.30;;
24685;SDS011;12804;51.176;4.452;2023-04-12T02:53:47;4.18;;;1.50;;
24685;SDS011;12804;51.176;4.452;2023-04-12T02:56:20;2.70;;;1.10;;
24685;SDS011;12804;51.176;4.452;2023-04-12T02:58:52;2.35;;;1.00;;
24685;SDS011;12804;51.176;4.452;2023-04-12T03:01:36;2.47;;;1.00;;
24685;SDS011;12804;51.176;4.452;2023-04-12T03:04:25;8.02;;;1.35;;
24685;SDS011;12804;51.176;4.452;2023-04-12T03:06:56;4.18;;;1.38;;
24685;SDS011;12804;51.176;4.452;2023-04-12T03:09:37;3.20;;;1.30;;
24685;SDS011;12804;51.176;4.452;2023-04-12T03:12:07;2.22;;;1.13;;
24685;SDS011;12804;51.176;4.452;2023-04-12T03:14:38;2.23;;;1.27;;
24685;SDS011;12804;51.176;4.452;2023-04-12T03:17:06;4.13;;;1.25;;
24685;SDS011;12804;51.176;4.452;2023-04-12T03:19:34;2.50;;;1.20;;
24685;SDS011;12804;51.176;4.452;2023-04-12T03:22:02;3.63;;;1.20;;
24685;SDS011;12804;51.176;4.452;2023-04-12T03:24:31;4.38;;;1.10;;
24685;SDS011;12804;51.176;4.452;2023-04-12T03:27:00;2.83;;;1.00;;
24685;SDS011;12804;51.176;4.452;2023-04-12T03:29:27;2.70;;;1.02;;
24685;SDS011;12804;51.176;4.452;2023-04-12T03:31:53;2.90;;;1.13;;
24685;SDS011;12804;51.176;4.452;2023-04-12T03:34:23;5.13;;;1.17;;
24685;SDS011;12804;51.176;4.452;2023-04-12T03:36:55;3.53;;;1.50;;
24685;SDS011;12804;51.176;4.452;2023-04-12T03:39:34;2.67;;;1.20;;
24685;SDS011;12804;51.176;4.452;2023-04-12T03:42:00;3.53;;;1.15;;
24685;SDS011;12804;51.176;4.452;2023-04-12T03:44:27;2.78;;;1.23;;
24685;SDS011;12804;51.176;4.452;2023-04-12T03:46:55;3.35;;;1.10;;
24685;SDS011;12804;51.176;4.452;2023-04-12T03:49:22;2.40;;;1.13;;
24685;SDS011;12804;51.176;4.452;2023-04-12T03:51:48;2.35;;;1.10;;
24685;SDS011;12804;51.176;4.452;2023-04-12T03:54:15;1.83;;;1.00;;
24685;SDS011;12804;51.176;4.452;2023-04-12T03:57:01;2.78;;;1.10;;
24685;SDS011;12804;51.176;4.452;2023-04-12T03:59:41;3.70;;;0.88;;
24685;SDS011;12804;51.176;4.452;2023-04-12T04:02:08;1.75;;;1.08;;
24685;SDS011;12804;51.176;4.452;2023-04-12T04:04:39;5.25;;;1.33;;
24685;SDS011;12804;51.176;4.452;2023-04-12T04:07:09;1.52;;;1.10;;
24685;SDS011;12804;51.176;4.452;2023-04-12T04:12:08;3.05;;;1.33;;
24685;SDS011;12804;51.176;4.452;2023-04-12T04:14:38;1.25;;;1.00;;
24685;SDS011;12804;51.176;4.452;2023-04-12T04:17:06;4.85;;;1.27;;
24685;SDS011;12804;51.176;4.452;2023-04-12T04:19:33;2.60;;;0.95;;
24685;SDS011;12804;51.176;4.452;2023-04-12T04:21:59;2.70;;;1.10;;
24685;SDS011;12804;51.176;4.452;2023-04-12T04:24:26;1.55;;;0.90;;
24685;SDS011;12804;51.176;4.452;2023-04-12T04:26:56;3.17;;;1.10;;
24685;SDS011;12804;51.176;4.452;2023-04-12T04:29:25;2.30;;;1.10;;
24685;SDS011;12804;51.176;4.452;2023-04-12T04:31:53;2.20;;;1.27;;
24685;SDS011;12804;51.176;4.452;2023-04-12T04:34:20;2.53;;;1.02;;
24685;SDS011;12804;51.176;4.452;2023-04-12T04:36:47;2.60;;;1.10;;
24685;SDS011;12804;51.176;4.452;2023-04-12T04:39:21;3.40;;;1.40;;
24685;SDS011;12804;51.176;4.452;2023-04-12T04:41:47;1.75;;;1.02;;
24685;SDS011;12804;51.176;4.452;2023-04-12T04:44:29;1.98;;;1.10;;
24685;SDS011;12804;51.176;4.452;2023-04-12T04:46:56;1.88;;;1.10;;
24685;SDS011;12804;51.176;4.452;2023-04-12T04:49:25;2.75;;;1.38;;
24685;SDS011;12804;51.176;4.452;2023-04-12T04:51:51;1.60;;;1.10;;
24685;SDS011;12804;51.176;4.452;2023-04-12T04:54:21;4.85;;;1.50;;
24685;SDS011;12804;51.176;4.452;2023-04-12T04:56:46;3.47;;;1.50;;
24685;SDS011;12804;51.176;4.452;2023-04-12T04:59:15;1.92;;;1.40;;
24685;SDS011;12804;51.176;4.452;2023-04-12T05:01:42;4.55;;;1.35;;
24685;SDS011;12804;51.176;4.452;2023-04-12T05:04:07;1.88;;;1.40;;
24685;SDS011;12804;51.176;4.452;2023-04-12T05:06:33;2.20;;;1.40;;
24685;SDS011;12804;51.176;4.452;2023-04-12T05:09:00;3.63;;;1.40;;
24685;SDS011;12804;51.176;4.452;2023-04-12T05:11:28;2.00;;;1.40;;
24685;SDS011;12804;51.176;4.452;2023-04-12T05:13:54;2.00;;;1.50;;
24685;SDS011;12804;51.176;4.452;2023-04-12T05:16:19;2.42;;;1.55;;
24685;SDS011;12804;51.176;4.452;2023-04-12T05:18:45;2.53;;;1.70;;
24685;SDS011;12804;51.176;4.452;2023-04-12T05:21:11;5.25;;;2.05;;
24685;SDS011;12804;51.176;4.452;2023-04-12T05:23:41;3.40;;;2.15;;
24685;SDS011;12804;51.176;4.452;2023-04-12T05:26:11;3.72;;;2.20;;
24685;SDS011;12804;51.176;4.452;2023-04-12T05:28:38;4.78;;;2.38;;
24685;SDS011;12804;51.176;4.452;2023-04-12T05:31:04;3.67;;;2.08;;
24685;SDS011;12804;51.176;4.452;2023-04-12T05:33:34;3.42;;;1.80;;
24685;SDS011;12804;51.176;4.452;2023-04-12T05:36:01;4.20;;;2.50;;
24685;SDS011;12804;51.176;4.452;2023-04-12T05:38:29;3.47;;;1.90;;
24685;SDS011;12804;51.176;4.452;2023-04-12T05:41:00;4.07;;;2.20;;
24685;SDS011;12804;51.176;4.452;2023-04-12T05:43:30;5.88;;;2.63;;
24685;SDS011;12804;51.176;4.452;2023-04-12T05:45:57;6.35;;;2.30;;
24685;SDS011;12804;51.176;4.452;2023-04-12T05:48:23;7.10;;;2.97;;
24685;SDS011;12804;51.176;4.452;2023-04-12T05:50:52;7.82;;;2.67;;
24685;SDS011;12804;51.176;4.452;2023-04-12T05:53:20;7.45;;;2.80;;
24685;SDS011;12804;51.176;4.452;2023-04-12T05:55:46;5.75;;;2.97;;
24685;SDS011;12804;51.176;4.452;2023-04-12T05:58:12;6.10;;;2.42;;
24685;SDS011;12804;51.176;4.452;2023-04-12T06:00:39;7.60;;;2.85;;
24685;SDS011;12804;51.176;4.452;2023-04-12T06:03:07;6.43;;;2.60;;
24685;SDS011;12804;51.176;4.452;2023-04-12T06:05:34;5.47;;;2.45;;
24685;SDS011;12804;51.176;4.452;2023-04-12T06:08:00;6.07;;;2.50;;
24685;SDS011;12804;51.176;4.452;2023-04-12T06:10:27;7.75;;;2.40;;
24685;SDS011;12804;51.176;4.452;2023-04-12T06:12:53;11.73;;;3.20;;
24685;SDS011;12804;51.176;4.452;2023-04-12T06:15:19;9.48;;;2.60;;
24685;SDS011;12804;51.176;4.452;2023-04-12T06:17:48;7.75;;;2.35;;
24685;SDS011;12804;51.176;4.452;2023-04-12T06:20:16;9.90;;;3.30;;
24685;SDS011;12804;51.176;4.452;2023-04-12T06:22:42;9.10;;;2.83;;
24685;SDS011;12804;51.176;4.452;2023-04-12T06:25:14;12.85;;;3.25;;
24685;SDS011;12804;51.176;4.452;2023-04-12T06:27:42;9.88;;;3.00;;
24685;SDS011;12804;51.176;4.452;2023-04-12T06:30:09;11.52;;;3.88;;
24685;SDS011;12804;51.176;4.452;2023-04-12T06:32:35;9.10;;;2.60;;
24685;SDS011;12804;51.176;4.452;2023-04-12T06:35:03;6.85;;;2.72;;
24685;SDS011;12804;51.176;4.452;2023-04-12T06:37:30;11.80;;;3.40;;
24685;SDS011;12804;51.176;4.452;2023-04-12T06:39:56;11.90;;;2.72;;
24685;SDS011;12804;51.176;4.452;2023-04-12T06:42:22;8.38;;;2.90;;
24685;SDS011;12804;51.176;4.452;2023-04-12T06:44:48;6.93;;;2.58;;
24685;SDS011;12804;51.176;4.452;2023-04-12T06:47:14;8.00;;;3.08;;
24685;SDS011;12804;51.176;4.452;2023-04-12T06:49:40;8.50;;;3.20;;
24685;SDS011;12804;51.176;4.452;2023-04-12T06:52:06;6.32;;;3.20;;
24685;SDS011;12804;51.176;4.452;2023-04-12T06:54:32;9.30;;;3.00;;
24685;SDS011;12804;51.176;4.452;2023-04-12T06:57:02;8.93;;;2.90;;
24685;SDS011;12804;51.176;4.452;2023-04-12T06:59:27;8.88;;;3.35;;
24685;SDS011;12804;51.176;4.452;2023-04-12T07:01:53;10.85;;;3.47;;
24685;SDS011;12804;51.176;4.452;2023-04-12T07:04:19;7.50;;;3.10;;
24685;SDS011;12804;51.176;4.452;2023-04-12T07:06:45;9.38;;;3.10;;
24685;SDS011;12804;51.176;4.452;2023-04-12T07:09:11;8.63;;;2.78;;
24685;SDS011;12804;51.176;4.452;2023-04-12T07:11:36;6.85;;;2.92;;
24685;SDS011;12804;51.176;4.452;2023-04-12T07:14:02;6.38;;;2.80;;
24685;SDS011;12804;51.176;4.452;2023-04-12T07:16:28;7.63;;;3.00;;
24685;SDS011;12804;51.176;4.452;2023-04-12T07:18:58;9.85;;;3.03;;
24685;SDS011;12804;51.176;4.452;2023-04-12T07:21:24;12.00;;;2.85;;
24685;SDS011;12804;51.176;4.452;2023-04-12T07:23:51;10.55;;;2.80;;
24685;SDS011;12804;51.176;4.452;2023-04-12T07:26:17;15.10;;;3.20;;
24685;SDS011;12804;51.176;4.452;2023-04-12T07:28:43;10.52;;;3.05;;
24685;SDS011;12804;51.176;4.452;2023-04-12T07:31:10;10.50;;;2.78;;
24685;SDS011;12804;51.176;4.452;2023-04-12T07:33:35;10.90;;;2.80;;
24685;SDS011;12804;51.176;4.452;2023-04-12T07:36:02;10.18;;;3.00;;
24685;SDS011;12804;51.176;4.452;2023-04-12T07:38:28;14.63;;;2.85;;
24685;SDS011;12804;51.176;4.452;2023-04-12T07:40:55;7.18;;;2.50;;
24685;SDS011;12804;51.176;4.452;2023-04-12T07:43:21;10.07;;;2.35;;
24685;SDS011;12804;51.176;4.452;2023-04-12T07:45:48;10.77;;;2.45;;
24685;SDS011;12804;51.176;4.452;2023-04-12T07:48:14;8.35;;;2.60;;
24685;SDS011;12804;51.176;4.452;2023-04-12T07:50:40;6.72;;;2.30;;
24685;SDS011;12804;51.176;4.452;2023-04-12T07:53:24;8.07;;;2.15;;
24685;SDS011;12804;51.176;4.452;2023-04-12T07:55:51;8.90;;;1.88;;
24685;SDS011;12804;51.176;4.452;2023-04-12T07:58:19;9.25;;;1.88;;
24685;SDS011;12804;51.176;4.452;2023-04-12T08:00:46;6.90;;;1.67;;
24685;SDS011;12804;51.176;4.452;2023-04-12T08:03:13;11.05;;;1.85;;
24685;SDS011;12804;51.176;4.452;2023-04-12T08:05:40;12.35;;;2.22;;
24685;SDS011;12804;51.176;4.452;2023-04-12T08:08:06;11.90;;;1.90;;
24685;SDS011;12804;51.176;4.452;2023-04-12T08:10:34;12.07;;;2.47;;
24685;SDS011;12804;51.176;4.452;2023-04-12T08:13:01;13.10;;;2.45;;
24685;SDS011;12804;51.176;4.452;2023-04-12T08:15:27;11.25;;;2.67;;
24685;SDS011;12804;51.176;4.452;2023-04-12T08:17:53;11.13;;;1.92;;
24685;SDS011;12804;51.176;4.452;2023-04-12T08:20:19;10.80;;;2.30;;
24685;SDS011;12804;51.176;4.452;2023-04-12T08:22:45;9.98;;;2.10;;
24685;SDS011;12804;51.176;4.452;2023-04-12T08:25:11;9.32;;;2.15;;
24685;SDS011;12804;51.176;4.452;2023-04-12T08:27:38;12.98;;;2.25;;
24685;SDS011;12804;51.176;4.452;2023-04-12T08:30:06;11.32;;;2.28;;
24685;SDS011;12804;51.176;4.452;2023-04-12T08:32:33;11.18;;;2.42;;
24685;SDS011;12804;51.176;4.452;2023-04-12T08:34:59;8.77;;;1.90;;
24685;SDS011;12804;51.176;4.452;2023-04-12T08:37:26;14.07;;;2.75;;
24685;SDS011;12804;51.176;4.452;2023-04-12T08:39:52;16.25;;;2.95;;
24685;SDS011;12804;51.176;4.452;2023-04-12T08:42:18;12.70;;;2.30;;
24685;SDS011;12804;51.176;4.452;2023-04-12T08:44:44;15.50;;;2.25;;
24685;SDS011;12804;51.176;4.452;2023-04-12T08:47:10;11.23;;;2.35;;
24685;SDS011;12804;51.176;4.452;2023-04-12T08:49:36;11.07;;;2.28;;
24685;SDS011;12804;51.176;4.452;2023-04-12T08:52:03;13.60;;;2.17;;
24685;SDS011;12804;51.176;4.452;2023-04-12T08:54:33;13.82;;;1.83;;
24685;SDS011;12804;51.176;4.452;2023-04-12T08:57:00;12.85;;;2.25;;
24685;SDS011;12804;51.176;4.452;2023-04-12T08:59:29;9.68;;;2.30;;
24685;SDS011;12804;51.176;4.452;2023-04-12T09:01:56;13.50;;;2.60;;
24685;SDS011;12804;51.176;4.452;2023-04-12T09:04:23;14.88;;;2.30;;
24685;SDS011;12804;51.176;4.452;2023-04-12T09:06:53;12.73;;;2.28;;
24685;SDS011;12804;51.176;4.452;2023-04-12T09:09:39;10.40;;;2.47;;
24685;SDS011;12804;51.176;4.452;2023-04-12T09:12:12;10.85;;;2.25;;
24685;SDS011;12804;51.176;4.452;2023-04-12T09:14:39;10.65;;;2.20;;
24685;SDS011;12804;51.176;4.452;2023-04-12T09:17:23;10.50;;;1.88;;
24685;SDS011;12804;51.176;4.452;2023-04-12T09:19:52;11.88;;;1.88;;
24685;SDS011;12804;51.176;4.452;2023-04-12T09:22:34;11.43;;;1.90;;
24685;SDS011;12804;51.176;4.452;2023-04-12T09:25:01;14.20;;;2.20;;
24685;SDS011;12804;51.176;4.452;2023-04-12T09:27:27;7.88;;;1.85;;
24685;SDS011;12804;51.176;4.452;2023-04-12T09:30:09;9.02;;;1.92;;
24685;SDS011;12804;51.176;4.452;2023-04-12T09:32:35;9.30;;;2.40;;
24685;SDS011;12804;51.176;4.452;2023-04-12T09:35:01;11.15;;;2.20;;
24685;SDS011;12804;51.176;4.452;2023-04-12T09:37:29;10.50;;;2.00;;
24685;SDS011;12804;51.176;4.452;2023-04-12T09:40:08;8.52;;;1.90;;
24685;SDS011;12804;51.176;4.452;2023-04-12T09:42:51;8.75;;;1.95;;
24685;SDS011;12804;51.176;4.452;2023-04-12T09:45:18;10.50;;;2.10;;
24685;SDS011;12804;51.176;4.452;2023-04-12T09:47:49;8.82;;;1.73;;
24685;SDS011;12804;51.176;4.452;2023-04-12T09:50:19;7.40;;;2.00;;
24685;SDS011;12804;51.176;4.452;2023-04-12T09:52:47;7.88;;;1.98;;
24685;SDS011;12804;51.176;4.452;2023-04-12T09:55:13;8.45;;;1.83;;
24685;SDS011;12804;51.176;4.452;2023-04-12T09:57:40;8.55;;;1.60;;
24685;SDS011;12804;51.176;4.452;2023-04-12T10:00:07;7.32;;;1.55;;
24685;SDS011;12804;51.176;4.452;2023-04-12T10:02:41;8.85;;;2.00;;
24685;SDS011;12804;51.176;4.452;2023-04-12T10:05:12;10.18;;;2.10;;
24685;SDS011;12804;51.176;4.452;2023-04-12T10:07:41;8.90;;;2.05;;
24685;SDS011;12804;51.176;4.452;2023-04-12T10:10:08;12.23;;;1.50;;
24685;SDS011;12804;51.176;4.452;2023-04-12T10:12:36;7.53;;;1.50;;
24685;SDS011;12804;51.176;4.452;2023-04-12T10:15:05;11.15;;;2.13;;
24685;SDS011;12804;51.176;4.452;2023-04-12T10:17:40;10.73;;;2.00;;
24685;SDS011;12804;51.176;4.452;2023-04-12T10:20:10;8.63;;;2.05;;
24685;SDS011;12804;51.176;4.452;2023-04-12T10:22:50;6.20;;;1.58;;
24685;SDS011;12804;51.176;4.452;2023-04-12T10:25:21;18.60;;;3.25;;
24685;SDS011;12804;51.176;4.452;2023-04-12T10:32:44;10.23;;;2.00;;
24685;SDS011;12804;51.176;4.452;2023-04-12T10:35:11;13.43;;;2.10;;
24685;SDS011;12804;51.176;4.452;2023-04-12T10:40:25;12.60;;;2.45;;
24685;SDS011;12804;51.176;4.452;2023-04-12T10:45:43;11.25;;;2.10;;
24685;SDS011;12804;51.176;4.452;2023-04-12T10:53:36;16.85;;;2.75;;
24685;SDS011;12804;51.176;4.452;2023-04-12T10:56:25;12.60;;;2.65;;
24685;SDS011;12804;51.176;4.452;2023-04-12T10:58:55;16.30;;;2.50;;
24685;SDS011;12804;51.176;4.452;2023-04-12T11:01:23;15.02;;;2.13;;
24685;SDS011;12804;51.176;4.452;2023-04-12T11:09:56;14.65;;;2.67;;
24685;SDS011;12804;51.176;4.452;2023-04-12T11:12:26;10.75;;;2.08;;
24685;SDS011;12804;51.176;4.452;2023-04-12T11:14:58;14.77;;;2.78;;
24685;SDS011;12804;51.176;4.452;2023-04-12T11:17:28;11.82;;;2.78;;
24685;SDS011;12804;51.176;4.452;2023-04-12T11:19:56;8.43;;;2.03;;
24685;SDS011;12804;51.176;4.452;2023-04-12T11:22:27;11.82;;;2.28;;
24685;SDS011;12804;51.176;4.452;2023-04-12T11:24:58;11.77;;;1.77;;
24685;SDS011;12804;51.176;4.452;2023-04-12T11:27:25;9.35;;;1.83;;
24685;SDS011;12804;51.176;4.452;2023-04-12T11:29:53;5.00;;;1.40;;
24685;SDS011;12804;51.176;4.452;2023-04-12T11:32:21;10.75;;;1.65;;
24685;SDS011;12804;51.176;4.452;2023-04-12T11:34:48;6.60;;;1.27;;
24685;SDS011;12804;51.176;4.452;2023-04-12T11:37:16;8.32;;;1.77;;
24685;SDS011;12804;51.176;4.452;2023-04-12T11:39:43;9.52;;;2.25;;
24685;SDS011;12804;51.176;4.452;2023-04-12T11:42:17;8.25;;;1.70;;
24685;SDS011;12804;51.176;4.452;2023-04-12T11:44:47;9.50;;;2.03;;
24685;SDS011;12804;51.176;4.452;2023-04-12T11:47:20;10.60;;;1.83;;
24685;SDS011;12804;51.176;4.452;2023-04-12T11:52:16;2.67;;;1.00;;
24685;SDS011;12804;51.176;4.452;2023-04-12T11:54:47;4.30;;;0.90;;
24685;SDS011;12804;51.176;4.452;2023-04-12T11:57:16;1.38;;;0.60;;
24685;SDS011;12804;51.176;4.452;2023-04-12T11:59:43;3.97;;;0.80;;
24685;SDS011;12804;51.176;4.452;2023-04-12T12:02:11;3.03;;;0.70;;
24685;SDS011;12804;51.176;4.452;2023-04-12T12:04:39;3.40;;;0.90;;
24685;SDS011;12804;51.176;4.452;2023-04-12T12:07:06;4.80;;;1.10;;
24685;SDS011;12804;51.176;4.452;2023-04-12T12:09:33;5.32;;;1.10;;
24685;SDS011;12804;51.176;4.452;2023-04-12T12:12:00;2.30;;;0.63;;
24685;SDS011;12804;51.176;4.452;2023-04-12T12:14:26;2.45;;;0.90;;
24685;SDS011;12804;51.176;4.452;2023-04-12T12:16:56;3.78;;;0.90;;
24685;SDS011;12804;51.176;4.452;2023-04-12T12:19:29;2.95;;;0.75;;
24685;SDS011;12804;51.176;4.452;2023-04-12T12:24:34;3.30;;;0.77;;
24685;SDS011;12804;51.176;4.452;2023-04-12T12:27:03;2.55;;;0.60;;
24685;SDS011;12804;51.176;4.452;2023-04-12T12:29:35;5.28;;;0.80;;
24685;SDS011;12804;51.176;4.452;2023-04-12T12:32:08;5.65;;;1.10;;
24685;SDS011;12804;51.176;4.452;2023-04-12T12:34:34;2.40;;;0.85;;
24685;SDS011;12804;51.176;4.452;2023-04-12T12:37:01;2.30;;;0.55;;
24685;SDS011;12804;51.176;4.452;2023-04-12T12:39:26;3.10;;;0.90;;
24685;SDS011;12804;51.176;4.452;2023-04-12T12:41:53;3.22;;;1.10;;
24685;SDS011;12804;51.176;4.452;2023-04-12T12:44:23;5.50;;;1.40;;
24685;SDS011;12804;51.176;4.452;2023-04-12T12:46:48;3.70;;;0.93;;
24685;SDS011;12804;51.176;4.452;2023-04-12T12:49:15;6.50;;;1.00;;
24685;SDS011;12804;51.176;4.452;2023-04-12T12:51:41;6.15;;;1.00;;
24685;SDS011;12804;51.176;4.452;2023-04-12T12:54:07;3.75;;;0.93;;
24685;SDS011;12804;51.176;4.452;2023-04-12T12:56:33;4.07;;;0.82;;
24685;SDS011;12804;51.176;4.452;2023-04-12T12:59:00;5.00;;;0.88;;
24685;SDS011;12804;51.176;4.452;2023-04-12T13:01:29;4.95;;;1.00;;
24685;SDS011;12804;51.176;4.452;2023-04-12T13:03:55;3.80;;;0.55;;
24685;SDS011;12804;51.176;4.452;2023-04-12T13:06:21;4.18;;;0.70;;
24685;SDS011;12804;51.176;4.452;2023-04-12T13:08:47;3.50;;;0.70;;
24685;SDS011;12804;51.176;4.452;2023-04-12T13:11:13;3.42;;;0.60;;
24685;SDS011;12804;51.176;4.452;2023-04-12T13:13:39;3.95;;;0.80;;
24685;SDS011;12804;51.176;4.452;2023-04-12T13:16:05;1.98;;;0.60;;
24685;SDS011;12804;51.176;4.452;2023-04-12T13:18:31;2.70;;;0.75;;
24685;SDS011;12804;51.176;4.452;2023-04-12T13:20:57;3.22;;;0.77;;
24685;SDS011;12804;51.176;4.452;2023-04-12T13:23:22;2.17;;;0.80;;
24685;SDS011;12804;51.176;4.452;2023-04-12T13:25:48;1.60;;;0.60;;
24685;SDS011;12804;51.176;4.452;2023-04-12T13:28:14;3.63;;;0.60;;
24685;SDS011;12804;51.176;4.452;2023-04-12T13:30:41;3.08;;;0.90;;
24685;SDS011;12804;51.176;4.452;2023-04-12T13:33:06;1.55;;;1.05;;
24685;SDS011;12804;51.176;4.452;2023-04-12T13:35:33;3.53;;;1.52;;
24685;SDS011;12804;51.176;4.452;2023-04-12T13:37:58;6.45;;;2.10;;
24685;SDS011;12804;51.176;4.452;2023-04-12T13:40:24;2.67;;;1.65;;
24685;SDS011;12804;51.176;4.452;2023-04-12T13:42:50;4.00;;;1.70;;
24685;SDS011;12804;51.176;4.452;2023-04-12T13:45:16;2.60;;;1.60;;
24685;SDS011;12804;51.176;4.452;2023-04-12T13:47:41;3.38;;;2.20;;
24685;SDS011;12804;51.176;4.452;2023-04-12T13:50:07;3.83;;;2.10;;
24685;SDS011;12804;51.176;4.452;2023-04-12T13:52:34;5.35;;;3.70;;
24685;SDS011;12804;51.176;4.452;2023-04-12T13:54:59;5.05;;;2.28;;
24685;SDS011;12804;51.176;4.452;2023-04-12T13:57:25;4.45;;;1.95;;
24685;SDS011;12804;51.176;4.452;2023-04-12T13:59:51;2.47;;;1.77;;
24685;SDS011;12804;51.176;4.452;2023-04-12T14:02:17;4.70;;;1.60;;
24685;SDS011;12804;51.176;4.452;2023-04-12T14:04:49;3.58;;;0.90;;
24685;SDS011;12804;51.176;4.452;2023-04-12T14:07:16;3.75;;;0.90;;
24685;SDS011;12804;51.176;4.452;2023-04-12T14:09:42;3.50;;;1.00;;
24685;SDS011;12804;51.176;4.452;2023-04-12T14:12:08;2.95;;;0.90;;
24685;SDS011;12804;51.176;4.452;2023-04-12T14:14:34;2.45;;;0.60;;
24685;SDS011;12804;51.176;4.452;2023-04-12T14:17:00;4.13;;;0.70;;
24685;SDS011;12804;51.176;4.452;2023-04-12T14:19:27;3.67;;;0.95;;
24685;SDS011;12804;51.176;4.452;2023-04-12T14:21:53;1.50;;;0.47;;
24685;SDS011;12804;51.176;4.452;2023-04-12T14:24:19;4.80;;;0.80;;
24685;SDS011;12804;51.176;4.452;2023-04-12T14:26:46;1.55;;;0.50;;
24685;SDS011;12804;51.176;4.452;2023-04-12T14:29:14;5.57;;;0.80;;
24685;SDS011;12804;51.176;4.452;2023-04-12T14:31:40;3.90;;;0.77;;
24685;SDS011;12804;51.176;4.452;2023-04-12T14:34:06;3.15;;;0.70;;
24685;SDS011;12804;51.176;4.452;2023-04-12T14:36:35;1.95;;;0.60;;
24685;SDS011;12804;51.176;4.452;2023-04-12T14:39:01;3.25;;;0.60;;
24685;SDS011;12804;51.176;4.452;2023-04-12T14:41:30;3.80;;;0.80;;
24685;SDS011;12804;51.176;4.452;2023-04-12T14:43:58;3.08;;;0.70;;
24685;SDS011;12804;51.176;4.452;2023-04-12T14:46:24;1.25;;;0.60;;
24685;SDS011;12804;51.176;4.452;2023-04-12T14:48:52;4.75;;;0.60;;
24685;SDS011;12804;51.176;4.452;2023-04-12T14:51:18;2.45;;;0.75;;
24685;SDS011;12804;51.176;4.452;2023-04-12T14:53:44;2.53;;;0.70;;
24685;SDS011;12804;51.176;4.452;2023-04-12T14:56:23;2.60;;;0.70;;
24685;SDS011;12804;51.176;4.452;2023-04-12T14:58:52;2.25;;;0.60;;
24685;SDS011;12804;51.176;4.452;2023-04-12T15:01:22;5.05;;;0.82;;
24685;SDS011;12804;51.176;4.452;2023-04-12T15:03:49;3.55;;;0.85;;
24685;SDS011;12804;51.176;4.452;2023-04-12T15:06:16;2.97;;;0.70;;
24685;SDS011;12804;51.176;4.452;2023-04-12T15:08:42;6.57;;;1.00;;
24685;SDS011;12804;51.176;4.452;2023-04-12T15:11:09;3.60;;;0.70;;
24685;SDS011;12804;51.176;4.452;2023-04-12T15:13:35;4.30;;;1.10;;
24685;SDS011;12804;51.176;4.452;2023-04-12T15:16:04;5.53;;;0.85;;
24685;SDS011;12804;51.176;4.452;2023-04-12T15:18:35;5.07;;;0.93;;
24685;SDS011;12804;51.176;4.452;2023-04-12T15:21:06;2.53;;;0.70;;
24685;SDS011;12804;51.176;4.452;2023-04-12T15:23:36;2.65;;;0.68;;
24685;SDS011;12804;51.176;4.452;2023-04-12T15:26:03;3.75;;;0.80;;
24685;SDS011;12804;51.176;4.452;2023-04-12T15:28:33;4.10;;;0.70;;
24685;SDS011;12804;51.176;4.452;2023-04-12T15:31:00;2.85;;;0.63;;